sensor_id;sensor_type;location;lat;lon;timestamp;pressure;altitude;pressure_sealevel;temperature;humidity
23318;BME280;11831;55.918;37.746;2023-05-21T00:01:53;100091.22;;;12.03;0.00
23318;BME280;11831;55.918;37.746;2023-05-21T00:04:19;100095.38;;;11.99;0.00
23318;BME280;11831;55.918;37.746;2023-05-21T00:06:45;100077.91;;;11.96;0.00
23318;BME280;11831;55.918;37.746;2023-05-21T00:09:12;100079.19;;;11.87;0.00
23318;BME280;11831;55.918;37.746;2023-05-21T00:11:38;100087.13;;;12.00;0.00
23318;BME280;11831;55.918;37.746;2023-05-21T00:14:05;100072.84;;;12.06;0.00
23318;BME280;11831;55.918;37.746;2023-05-21T00:16:31;100079.91;;;12.37;0.00
23318;BME280;11831;55.918;37.746;2023-05-21T00:18:57;100071.00;;;12.25;0.00
23318;BME280;11831;55.918;37.746;2023-05-21T00:21:24;100068.28;;;12.43;0.00
23318;BME280;11831;55.918;37.746;2023-05-21T00:23:52;100067.87;;;12.28;0.00
23318;BME280;11831;55.918;37.746;2023-05-21T00:26:22;100067.09;;;12.58;0.00
23318;BME280;11831;55.918;37.746;2023-05-21T00:28:51;100068.22;;;12.13;0.00
23318;BME280;11831;55.918;37.746;2023-05-21T00:31:18;100066.38;;;12.81;0.00
23318;BME280;11831;55.918;37.746;2023-05-21T00:33:44;100060.19;;;12.80;0.00
23318;BME280;11831;55.918;37.746;2023-05-21T00:36:10;100061.78;;;12.69;0.00
23318;BME280;11831;55.918;37.746;2023-05-21T00:38:40;100059.91;;;12.70;0.00
23318;BME280;11831;55.918;37.746;2023-05-21T00:41:10;100059.34;;;12.50;0.00
23318;BME280;11831;55.918;37.746;2023-05-21T00:43:37;100063.28;;;12.95;0.00
23318;BME280;11831;55.918;37.746;2023-05-21T00:52:34;100058.69;;;12.84;0.00
23318;BME280;11831;55.918;37.746;2023-05-21T00:55:07;100063.28;;;12.95;0.00
23318;BME280;11831;55.918;37.746;2023-05-21T00:57:34;100057.09;;;12.65;0.00
23318;BME280;11831;55.918;37.746;2023-05-21T01:00:03;100062.91;;;12.62;0.00
23318;BME280;11831;55.918;37.746;2023-05-21T01:02:32;100060.84;;;12.46;0.00
23318;BME280;11831;55.918;37.746;2023-05-21T01:04:59;100059.28;;;12.56;0.00
23318;BME280;11831;55.918;37.746;2023-05-21T01:07:25;100056.66;;;12.50;0.00
23318;BME280;11831;55.918;37.746;2023-05-21T01:09:52;100055.31;;;12.59;0.00
23318;BME280;11831;55.918;37.746;2023-05-21T01:12:20;100062.00;;;12.98;0.00
23318;BME280;11831;55.918;37.746;2023-05-21T01:14:48;100063.16;;;12.90;0.00
23318;BME280;11831;55.918;37.746;2023-05-21T01:17:15;100066.78;;;13.26;0.00
23318;BME280;11831;55.918;37.746;2023-05-21T01:19:42;100068.00;;;12.82;0.00
23318;BME280;11831;55.918;37.746;2023-05-21T01:22:11;100066.56;;;12.97;0.00
23318;BME280;11831;55.918;37.746;2023-05-21T01:24:39;100070.41;;;13.01;0.00
23318;BME280;11831;55.918;37.746;2023-05-21T01:27:06;100067.16;;;13.29;0.00
23318;BME280;11831;55.918;37.746;2023-05-21T01:29:35;100059.44;;;13.21;0.00
23318;BME280;11831;55.918;37.746;2023-05-21T01:32:10;100067.63;;;13.26;0.00
23318;BME280;11831;55.918;37.746;2023-05-21T01:37:36;100066.38;;;13.64;0.00
23318;BME280;11831;55.918;37.746;2023-05-21T01:40:27;100066.97;;;13.54;0.00
23318;BME280;11831;55.918;37.746;2023-05-21T01:42:55;100066.03;;;13.60;0.00
23318;BME280;11831;55.918;37.746;2023-05-21T01:45:23;100062.75;;;13.58;0.00
23318;BME280;11831;55.918;37.746;2023-05-21T01:47:52;100065.31;;;13.53;0.00
23318;BME280;11831;55.918;37.746;2023-05-21T01:50:24;100065.56;;;13.52;0.00
23318;BME280;11831;55.918;37.746;2023-05-21T01:52:54;100063.34;;;13.72;0.00
23318;BME280;11831;55.918;37.746;2023-05-21T01:55:21;100056.91;;;13.73;0.00
23318;BME280;11831;55.918;37.746;2023-05-21T01:57:54;100066.56;;;13.39;0.00
23318;BME280;11831;55.918;37.746;2023-05-21T02:00:23;100062.28;;;13.50;0.00
23318;BME280;11831;55.918;37.746;2023-05-21T02:02:50;100069.25;;;13.39;0.00
23318;BME280;11831;55.918;37.746;2023-05-21T02:05:17;100061.78;;;13.41;0.00
23318;BME280;11831;55.918;37.746;2023-05-21T02:07:43;100064.59;;;13.46;0.00
23318;BME280;11831;55.918;37.746;2023-05-21T02:10:11;100068.56;;;13.44;0.00
23318;BME280;11831;55.918;37.746;2023-05-21T02:12:37;100065.44;;;13.58;0.00
23318;BME280;11831;55.918;37.746;2023-05-21T02:15:04;100062.75;;;13.58;0.00
23318;BME280;11831;55.918;37.746;2023-05-21T02:17:31;100062.53;;;13.83;0.00
23318;BME280;11831;55.918;37.746;2023-05-21T02:20:01;100061.03;;;13.87;0.00
23318;BME280;11831;55.918;37.746;2023-05-21T02:22:38;100063.00;;;13.80;0.00
23318;BME280;11831;55.918;37.746;2023-05-21T02:25:06;100057.84;;;13.67;0.00
23318;BME280;11831;55.918;37.746;2023-05-21T02:27:34;100054.34;;;13.90;0.00
23318;BME280;11831;55.918;37.746;2023-05-21T02:30:02;100058.78;;;13.96;0.00
23318;BME280;11831;55.918;37.746;2023-05-21T02:32:30;100055.62;;;13.99;0.00
23318;BME280;11831;55.918;37.746;2023-05-21T02:34:57;100060.06;;;13.93;0.00
23318;BME280;11831;55.918;37.746;2023-05-21T02:37:25;100057.16;;;13.95;0.00
23318;BME280;11831;55.918;37.746;2023-05-21T02:39:54;100055.03;;;13.97;0.00
23318;BME280;11831;55.918;37.746;2023-05-21T02:42:21;100058.91;;;13.66;0.00
23318;BME280;11831;55.918;37.746;2023-05-21T02:44:49;100059.38;;;13.63;0.00
23318;BME280;11831;55.918;37.746;2023-05-21T02:47:17;100063.81;;;13.81;0.00
23318;BME280;11831;55.918;37.746;2023-05-21T02:49:44;100064.50;;;13.76;0.00
23318;BME280;11831;55.918;37.746;2023-05-21T02:52:10;100065.91;;;13.90;0.00
23318;BME280;11831;55.918;37.746;2023-05-21T02:54:38;100059.72;;;14.02;0.00
23318;BME280;11831;55.918;37.746;2023-05-21T02:57:04;100064.03;;;13.67;0.00
23318;BME280;11831;55.918;37.746;2023-05-21T02:59:31;100063.00;;;13.68;0.00
23318;BME280;11831;55.918;37.746;2023-05-21T03:01:57;100068.84;;;13.54;0.00
23318;BME280;11831;55.918;37.746;2023-05-21T03:04:23;100065.56;;;13.75;0.00
23318;BME280;11831;55.918;37.746;2023-05-21T03:06:50;100070.94;;;13.75;0.00
23318;BME280;11831;55.918;37.746;2023-05-21T03:09:20;100069.66;;;13.89;0.00
23318;BME280;11831;55.918;37.746;2023-05-21T03:11:47;100073.19;;;13.78;0.00
23318;BME280;11831;55.918;37.746;2023-05-21T03:14:14;100062.41;;;14.02;0.00
23318;BME280;11831;55.918;37.746;2023-05-21T03:16:41;100070.91;;;14.22;0.00
23318;BME280;11831;55.918;37.746;2023-05-21T03:19:09;100071.50;;;13.77;0.00
23318;BME280;11831;55.918;37.746;2023-05-21T03:21:37;100079.00;;;14.22;0.00
23318;BME280;11831;55.918;37.746;2023-05-21T03:24:04;100067.31;;;14.05;0.00
23318;BME280;11831;55.918;37.746;2023-05-21T03:26:31;100073.16;;;14.02;0.00
23318;BME280;11831;55.918;37.746;2023-05-21T03:28:58;100073.72;;;14.04;0.00
23318;BME280;11831;55.918;37.746;2023-05-21T03:31:25;100069.06;;;14.11;0.00
23318;BME280;11831;55.918;37.746;2023-05-21T03:33:52;100069.88;;;14.23;0.00
23318;BME280;11831;55.918;37.746;2023-05-21T03:36:19;100065.31;;;14.23;0.00
23318;BME280;11831;55.918;37.746;2023-05-21T03:38:46;100064.56;;;14.51;0.00
23318;BME280;11831;55.918;37.746;2023-05-21T03:41:12;100066.94;;;14.48;0.00
23318;BME280;11831;55.918;37.746;2023-05-21T03:43:38;100063.44;;;14.76;0.00
23318;BME280;11831;55.918;37.746;2023-05-21T03:46:05;100066.50;;;14.96;0.00
23318;BME280;11831;55.918;37.746;2023-05-21T03:48:32;100060.34;;;14.84;0.00
23318;BME280;11831;55.918;37.746;2023-05-21T03:50:58;100061.13;;;14.96;0.00
23318;BME280;11831;55.918;37.746;2023-05-21T03:53:25;100048.94;;;14.77;0.00
23318;BME280;11831;55.918;37.746;2023-05-21T03:55:52;100062.22;;;15.12;0.00
23318;BME280;11831;55.918;37.746;2023-05-21T03:58:23;100061.00;;;15.03;0.00
23318;BME280;11831;55.918;37.746;2023-05-21T04:00:49;100055.72;;;14.68;0.00
23318;BME280;11831;55.918;37.746;2023-05-21T04:03:16;100055.19;;;14.54;0.00
23318;BME280;11831;55.918;37.746;2023-05-21T04:05:43;100063.81;;;14.68;0.00
23318;BME280;11831;55.918;37.746;2023-05-21T04:08:09;100059.94;;;14.75;0.00
23318;BME280;11831;55.918;37.746;2023-05-21T04:10:36;100062.22;;;14.55;0.00
23318;BME280;11831;55.918;37.746;2023-05-21T04:13:02;100069.00;;;14.86;0.00
23318;BME280;11831;55.918;37.746;2023-05-21T04:15:28;100068.84;;;14.64;0.00
23318;BME280;11831;55.918;37.746;2023-05-21T04:17:55;100066.03;;;14.71;0.00
23318;BME280;11831;55.918;37.746;2023-05-21T04:20:21;100069.34;;;14.61;0.00
23318;BME280;11831;55.918;37.746;2023-05-21T04:22:48;100061.34;;;14.66;0.00
23318;BME280;11831;55.918;37.746;2023-05-21T04:25:14;100062.53;;;14.70;0.00
23318;BME280;11831;55.918;37.746;2023-05-21T04:27:40;100061.22;;;14.44;0.00
23318;BME280;11831;55.918;37.746;2023-05-21T04:30:08;100055.03;;;14.72;0.00
23318;BME280;11831;55.918;37.746;2023-05-21T04:32:36;100059.72;;;14.65;0.00
23318;BME280;11831;55.918;37.746;2023-05-21T04:35:03;100059.00;;;14.98;0.00
23318;BME280;11831;55.918;37.746;2023-05-21T04:37:30;100060.00;;;15.09;0.00
23318;BME280;11831;55.918;37.746;2023-05-21T04:40:00;100054.22;;;15.00;0.00
23318;BME280;11831;55.918;37.746;2023-05-21T04:42:27;100060.59;;;15.28;0.00
23318;BME280;11831;55.918;37.746;2023-05-21T04:44:54;100050.47;;;15.01;0.00
23318;BME280;11831;55.918;37.746;2023-05-21T04:47:21;100058.06;;;15.21;0.00
23318;BME280;11831;55.918;37.746;2023-05-21T04:49:47;100053.50;;;15.21;0.00
23318;BME280;11831;55.918;37.746;2023-05-21T04:52:15;100052.78;;;15.43;0.00
23318;BME280;11831;55.918;37.746;2023-05-21T04:54:42;100044.09;;;15.24;0.00
23318;BME280;11831;55.918;37.746;2023-05-21T04:57:10;100051.44;;;15.12;0.00
23318;BME280;11831;55.918;37.746;2023-05-21T04:59:37;100051.38;;;15.07;0.00
23318;BME280;11831;55.918;37.746;2023-05-21T05:02:04;100044.22;;;14.84;0.00
23318;BME280;11831;55.918;37.746;2023-05-21T05:04:31;100058.09;;;14.93;0.00
23318;BME280;11831;55.918;37.746;2023-05-21T05:06:57;100048.72;;;14.95;0.00
23318;BME280;11831;55.918;37.746;2023-05-21T05:09:23;100053.72;;;15.03;0.00
23318;BME280;11831;55.918;37.746;2023-05-21T05:11:50;100057.13;;;14.99;0.00
23318;BME280;11831;55.918;37.746;2023-05-21T05:14:16;100057.97;;;15.16;0.00
23318;BME280;11831;55.918;37.746;2023-05-21T05:16:43;100058.91;;;14.65;0.00
23318;BME280;11831;55.918;37.746;2023-05-21T05:19:13;100065.16;;;14.53;0.00
23318;BME280;11831;55.918;37.746;2023-05-21T05:21:39;100062.31;;;14.88;0.00
23318;BME280;11831;55.918;37.746;2023-05-21T05:24:06;100052.59;;;14.71;0.00
23318;BME280;11831;55.918;37.746;2023-05-21T05:26:32;100053.75;;;14.75;0.00
23318;BME280;11831;55.918;37.746;2023-05-21T05:28:58;100056.75;;;14.78;0.00
23318;BME280;11831;55.918;37.746;2023-05-21T05:31:25;100060.78;;;14.93;0.00
23318;BME280;11831;55.918;37.746;2023-05-21T05:33:52;100061.31;;;15.06;0.00
23318;BME280;11831;55.918;37.746;2023-05-21T05:36:18;100056.41;;;15.03;0.00
23318;BME280;11831;55.918;37.746;2023-05-21T05:38:45;100063.22;;;14.94;0.00
23318;BME280;11831;55.918;37.746;2023-05-21T05:41:11;100061.25;;;15.18;0.00
23318;BME280;11831;55.918;37.746;2023-05-21T05:43:38;100057.69;;;15.46;0.00
23318;BME280;11831;55.918;37.746;2023-05-21T05:46:04;100056.31;;;15.60;0.00
23318;BME280;11831;55.918;37.746;2023-05-21T05:48:30;100061.88;;;15.70;0.00
23318;BME280;11831;55.918;37.746;2023-05-21T05:50:57;100062.75;;;15.93;0.00
23318;BME280;11831;55.918;37.746;2023-05-21T05:53:23;100052.31;;;15.63;0.00
23318;BME280;11831;55.918;37.746;2023-05-21T05:55:50;100064.84;;;15.91;0.00
23318;BME280;11831;55.918;37.746;2023-05-21T05:58:16;100059.69;;;16.06;0.00
23318;BME280;11831;55.918;37.746;2023-05-21T06:00:42;100068.09;;;15.09;0.00
23318;BME280;11831;55.918;37.746;2023-05-21T06:03:09;100073.53;;;15.76;0.00
23318;BME280;11831;55.918;37.746;2023-05-21T06:05:37;100073.16;;;15.67;0.00
23318;BME280;11831;55.918;37.746;2023-05-21T06:08:03;100080.97;;;15.86;0.00
23318;BME280;11831;55.918;37.746;2023-05-21T06:10:30;100079.59;;;15.66;0.00
23318;BME280;11831;55.918;37.746;2023-05-21T06:12:56;100070.25;;;15.91;0.00
23318;BME280;11831;55.918;37.746;2023-05-21T06:15:23;100068.41;;;15.74;0.00
23318;BME280;11831;55.918;37.746;2023-05-21T06:17:49;100071.88;;;15.92;0.00
23318;BME280;11831;55.918;37.746;2023-05-21T06:20:15;100066.78;;;16.12;0.00
23318;BME280;11831;55.918;37.746;2023-05-21T06:22:42;100060.47;;;15.84;0.00
23318;BME280;11831;55.918;37.746;2023-05-21T06:25:08;100070.34;;;15.79;0.00
23318;BME280;11831;55.918;37.746;2023-05-21T06:27:36;100068.06;;;16.26;0.00
23318;BME280;11831;55.918;37.746;2023-05-21T06:30:04;100064.53;;;16.04;0.00
23318;BME280;11831;55.918;37.746;2023-05-21T06:32:32;100058.34;;;16.25;0.00
23318;BME280;11831;55.918;37.746;2023-05-21T06:34:58;100062.09;;;16.24;0.00
23318;BME280;11831;55.918;37.746;2023-05-21T06:37:24;100063.31;;;16.33;0.00
23318;BME280;11831;55.918;37.746;2023-05-21T06:39:51;100046.66;;;16.63;0.00
23318;BME280;11831;55.918;37.746;2023-05-21T06:42:17;100043.06;;;16.80;0.00
23318;BME280;11831;55.918;37.746;2023-05-21T06:44:45;100049.84;;;16.82;0.00
23318;BME280;11831;55.918;37.746;2023-05-21T06:47:12;100047.88;;;16.99;0.00
23318;BME280;11831;55.918;37.746;2023-05-21T06:49:38;100045.22;;;17.04;0.00
23318;BME280;11831;55.918;37.746;2023-05-21T06:52:05;100041.25;;;16.85;0.00
23318;BME280;11831;55.918;37.746;2023-05-21T06:54:32;100041.69;;;17.31;0.00
23318;BME280;11831;55.918;37.746;2023-05-21T06:56:59;100043.63;;;17.41;0.00
23318;BME280;11831;55.918;37.746;2023-05-21T06:59:26;100043.75;;;16.92;0.00
23318;BME280;11831;55.918;37.746;2023-05-21T07:01:53;100047.72;;;17.43;0.00
23318;BME280;11831;55.918;37.746;2023-05-21T07:04:19;100045.69;;;17.97;0.00
23318;BME280;11831;55.918;37.746;2023-05-21T07:06:46;100053.78;;;17.55;0.00
23318;BME280;11831;55.918;37.746;2023-05-21T07:09:14;100041.47;;;17.37;0.00
23318;BME280;11831;55.918;37.746;2023-05-21T07:11:40;100046.87;;;17.37;0.00
23318;BME280;11831;55.918;37.746;2023-05-21T07:14:07;100049.25;;;17.66;0.00
23318;BME280;11831;55.918;37.746;2023-05-21T07:16:34;100042.72;;;16.98;0.00
23318;BME280;11831;55.918;37.746;2023-05-21T07:19:00;100045.13;;;17.21;0.00
23318;BME280;11831;55.918;37.746;2023-05-21T07:21:28;100046.59;;;17.07;0.00
23318;BME280;11831;55.918;37.746;2023-05-21T07:23:56;100049.06;;;17.73;0.00
23318;BME280;11831;55.918;37.746;2023-05-21T07:26:22;100041.19;;;17.07;0.00
23318;BME280;11831;55.918;37.746;2023-05-21T07:28:48;100050.44;;;16.84;0.00
23318;BME280;11831;55.918;37.746;2023-05-21T07:31:15;100051.59;;;16.93;0.00
23318;BME280;11831;55.918;37.746;2023-05-21T07:33:41;100049.59;;;17.43;0.00
23318;BME280;11831;55.918;37.746;2023-05-21T07:36:08;100045.34;;;17.15;0.00
23318;BME280;11831;55.918;37.746;2023-05-21T07:38:34;100048.22;;;17.08;0.00
23318;BME280;11831;55.918;37.746;2023-05-21T07:41:01;100046.50;;;17.24;0.00
23318;BME280;11831;55.918;37.746;2023-05-21T07:43:27;100042.66;;;17.52;0.00
23318;BME280;11831;55.918;37.746;2023-05-21T07:45:53;100051.41;;;17.64;0.00
23318;BME280;11831;55.918;37.746;2023-05-21T07:48:20;100052.62;;;17.78;0.00
23318;BME280;11831;55.918;37.746;2023-05-21T07:50:47;100049.72;;;17.90;0.00
23318;BME280;11831;55.918;37.746;2023-05-21T07:53:14;100053.56;;;17.62;0.00
23318;BME280;11831;55.918;37.746;2023-05-21T07:55:41;100048.66;;;17.59;0.00
23318;BME280;11831;55.918;37.746;2023-05-21T07:58:16;100044.75;;;18.19;0.00
23318;BME280;11831;55.918;37.746;2023-05-21T08:00:46;100043.69;;;17.78;0.00
23318;BME280;11831;55.918;37.746;2023-05-21T08:03:13;100047.25;;;17.83;0.00
23318;BME280;11831;55.918;37.746;2023-05-21T08:05:44;100050.78;;;17.84;0.00
23318;BME280;11831;55.918;37.746;2023-05-21T08:08:17;100048.97;;;17.99;0.00
23318;BME280;11831;55.918;37.746;2023-05-21T08:10:44;100047.03;;;17.95;0.00
23318;BME280;11831;55.918;37.746;2023-05-21T08:13:12;100048.28;;;18.24;0.00
23318;BME280;11831;55.918;37.746;2023-05-21T08:15:39;100050.66;;;18.11;0.00
23318;BME280;11831;55.918;37.746;2023-05-21T08:18:08;100036.59;;;17.72;0.00
23318;BME280;11831;55.918;37.746;2023-05-21T08:20:35;100043.22;;;18.43;0.00
23318;BME280;11831;55.918;37.746;2023-05-21T08:23:01;100037.31;;;17.99;0.00
23318;BME280;11831;55.918;37.746;2023-05-21T08:25:29;100030.28;;;17.98;0.00
23318;BME280;11831;55.918;37.746;2023-05-21T08:27:55;100037.16;;;18.21;0.00
23318;BME280;11831;55.918;37.746;2023-05-21T08:30:22;100029.44;;;18.50;0.00
23318;BME280;11831;55.918;37.746;2023-05-21T08:32:48;100025.72;;;18.04;0.00
23318;BME280;11831;55.918;37.746;2023-05-21T08:35:15;100031.00;;;18.36;0.00
23318;BME280;11831;55.918;37.746;2023-05-21T08:37:41;100009.78;;;18.70;0.00
23318;BME280;11831;55.918;37.746;2023-05-21T08:40:09;100020.94;;;19.70;0.00
23318;BME280;11831;55.918;37.746;2023-05-21T08:42:42;100032.31;;;19.11;0.00
23318;BME280;11831;55.918;37.746;2023-05-21T08:45:19;100035.31;;;19.35;0.00
23318;BME280;11831;55.918;37.746;2023-05-21T08:47:45;100035.84;;;19.93;0.00
23318;BME280;11831;55.918;37.746;2023-05-21T08:50:16;100027.53;;;20.43;0.00
23318;BME280;11831;55.918;37.746;2023-05-21T08:52:46;100017.13;;;20.61;0.00
23318;BME280;11831;55.918;37.746;2023-05-21T08:55:14;100023.41;;;20.56;0.00
23318;BME280;11831;55.918;37.746;2023-05-21T08:57:42;100036.84;;;20.12;0.00
23318;BME280;11831;55.918;37.746;2023-05-21T09:00:10;100028.13;;;20.25;0.00
23318;BME280;11831;55.918;37.746;2023-05-21T09:02:38;100025.06;;;20.52;0.00
23318;BME280;11831;55.918;37.746;2023-05-21T09:05:09;100027.63;;;20.13;0.00
23318;BME280;11831;55.918;37.746;2023-05-21T09:07:45;100028.81;;;19.56;0.00
23318;BME280;11831;55.918;37.746;2023-05-21T09:10:13;100018.78;;;19.36;0.00
23318;BME280;11831;55.918;37.746;2023-05-21T09:12:39;100022.84;;;19.44;0.00
23318;BME280;11831;55.918;37.746;2023-05-21T09:15:06;100028.97;;;20.10;0.00
23318;BME280;11831;55.918;37.746;2023-05-21T09:17:33;100026.59;;;19.99;0.00
23318;BME280;11831;55.918;37.746;2023-05-21T09:22:41;100008.75;;;20.52;0.00
23318;BME280;11831;55.918;37.746;2023-05-21T09:25:09;100016.59;;;21.03;0.00
23318;BME280;11831;55.918;37.746;2023-05-21T09:27:37;100020.84;;;20.10;0.00
23318;BME280;11831;55.918;37.746;2023-05-21T09:30:06;100011.97;;;19.79;0.00
23318;BME280;11831;55.918;37.746;2023-05-21T09:32:34;100017.97;;;19.61;0.00
23318;BME280;11831;55.918;37.746;2023-05-21T09:35:08;100014.66;;;20.64;0.00
23318;BME280;11831;55.918;37.746;2023-05-21T09:37:47;100014.88;;;20.08;0.00
23318;BME280;11831;55.918;37.746;2023-05-21T09:40:20;100023.53;;;20.15;0.00
23318;BME280;11831;55.918;37.746;2023-05-21T09:42:49;100018.91;;;20.81;0.00
23318;BME280;11831;55.918;37.746;2023-05-21T09:45:23;100024.09;;;20.82;0.00
23318;BME280;11831;55.918;37.746;2023-05-21T09:47:51;100018.56;;;20.43;0.00
23318;BME280;11831;55.918;37.746;2023-05-21T09:50:23;100015.91;;;20.28;0.00
23318;BME280;11831;55.918;37.746;2023-05-21T09:52:51;100007.66;;;20.48;0.00
23318;BME280;11831;55.918;37.746;2023-05-21T09:55:25;100005.22;;;20.57;0.00
23318;BME280;11831;55.918;37.746;2023-05-21T09:57:52;100021.34;;;20.28;0.00
23318;BME280;11831;55.918;37.746;2023-05-21T10:00:21;100016.53;;;20.69;0.00
23318;BME280;11831;55.918;37.746;2023-05-21T10:02:49;100013.37;;;20.46;0.00
23318;BME280;11831;55.918;37.746;2023-05-21T10:05:19;100014.59;;;20.74;0.00
23318;BME280;11831;55.918;37.746;2023-05-21T10:07:51;100008.72;;;20.57;0.00
23318;BME280;11831;55.918;37.746;2023-05-21T10:10:20;100008.75;;;20.52;0.00
23318;BME280;11831;55.918;37.746;2023-05-21T10:13:25;99995.09;;;20.67;0.00
23318;BME280;11831;55.918;37.746;2023-05-21T10:15:47;100005.81;;;20.43;0.00
23318;BME280;11831;55.918;37.746;2023-05-21T10:18:17;100004.78;;;20.19;0.00
23318;BME280;11831;55.918;37.746;2023-05-21T10:20:44;100013.37;;;20.46;0.00
23318;BME280;11831;55.918;37.746;2023-05-21T10:23:11;100010.41;;;20.38;0.00
23318;BME280;11831;55.918;37.746;2023-05-21T10:25:38;100016.25;;;20.70;0.00
23318;BME280;11831;55.918;37.746;2023-05-21T10:28:06;100015.59;;;20.34;0.00
23318;BME280;11831;55.918;37.746;2023-05-21T10:30:33;100010.78;;;20.21;0.00
23318;BME280;11831;55.918;37.746;2023-05-21T10:33:01;100017.56;;;20.13;0.00
23318;BME280;11831;55.918;37.746;2023-05-21T10:35:29;100016.00;;;19.87;0.00
23318;BME280;11831;55.918;37.746;2023-05-21T10:37:57;100015.97;;;20.07;0.00
23318;BME280;11831;55.918;37.746;2023-05-21T10:40:25;100009.47;;;20.03;0.00
23318;BME280;11831;55.918;37.746;2023-05-21T10:43:01;100023.47;;;20.41;0.00
23318;BME280;11831;55.918;37.746;2023-05-21T10:57:25;100024.50;;;19.60;0.00
23318;BME280;11831;55.918;37.746;2023-05-21T10:59:57;100019.84;;;19.45;0.00
23318;BME280;11831;55.918;37.746;2023-05-21T11:02:25;100019.00;;;19.91;0.00
23318;BME280;11831;55.918;37.746;2023-05-21T11:05:01;100022.56;;;19.71;0.00
23318;BME280;11831;55.918;37.746;2023-05-21T11:07:52;100019.53;;;19.98;0.00
23318;BME280;11831;55.918;37.746;2023-05-21T11:13:14;100016.09;;;21.35;0.00
23318;BME280;11831;55.918;37.746;2023-05-21T11:21:05;99995.22;;;21.83;0.00
23318;BME280;11831;55.918;37.746;2023-05-21T11:26:16;99997.75;;;21.12;0.00
23318;BME280;11831;55.918;37.746;2023-05-21T11:28:43;100009.47;;;20.68;0.00
23318;BME280;11831;55.918;37.746;2023-05-21T11:31:23;100003.50;;;20.01;0.00
23318;BME280;11831;55.918;37.746;2023-05-21T11:34:12;100020.81;;;20.15;0.00
23318;BME280;11831;55.918;37.746;2023-05-21T11:36:40;100013.81;;;19.99;0.00
23318;BME280;11831;55.918;37.746;2023-05-21T11:39:08;100005.44;;;19.91;0.00
23318;BME280;11831;55.918;37.746;2023-05-21T11:42:00;100007.91;;;19.72;0.00
23318;BME280;11831;55.918;37.746;2023-05-21T11:44:42;100000.88;;;19.66;0.00
23318;BME280;11831;55.918;37.746;2023-05-21T11:47:13;100001.81;;;20.21;0.00
23318;BME280;11831;55.918;37.746;2023-05-21T11:49:40;100007.91;;;19.51;0.00
23318;BME280;11831;55.918;37.746;2023-05-21T11:52:08;100009.00;;;19.00;0.00
23318;BME280;11831;55.918;37.746;2023-05-21T11:54:43;100008.75;;;19.67;0.00
23318;BME280;11831;55.918;37.746;2023-05-21T11:57:13;100009.28;;;19.23;0.00
23318;BME280;11831;55.918;37.746;2023-05-21T11:59:49;100013.87;;;19.13;0.00
23318;BME280;11831;55.918;37.746;2023-05-21T12:02:20;100012.81;;;19.29;0.00
23318;BME280;11831;55.918;37.746;2023-05-21T12:04:48;100013.63;;;18.99;0.00
23318;BME280;11831;55.918;37.746;2023-05-21T12:07:17;100002.25;;;19.02;0.00
23318;BME280;11831;55.918;37.746;2023-05-21T12:09:46;100016.56;;;18.98;0.00
23318;BME280;11831;55.918;37.746;2023-05-21T12:12:17;100014.13;;;18.96;0.00
23318;BME280;11831;55.918;37.746;2023-05-21T12:14:49;100007.66;;;19.48;0.00
23318;BME280;11831;55.918;37.746;2023-05-21T12:17:18;100004.09;;;18.91;0.00
23318;BME280;11831;55.918;37.746;2023-05-21T12:19:45;100008.25;;;21.28;0.00
23318;BME280;11831;55.918;37.746;2023-05-21T12:22:12;100013.91;;;23.83;0.00
23318;BME280;11831;55.918;37.746;2023-05-21T12:24:41;100006.75;;;24.78;0.00
23318;BME280;11831;55.918;37.746;2023-05-21T12:27:12;100010.94;;;25.65;0.00
23318;BME280;11831;55.918;37.746;2023-05-21T12:29:41;100009.72;;;26.85;0.00
23318;BME280;11831;55.918;37.746;2023-05-21T12:32:14;100011.94;;;28.07;0.00
23318;BME280;11831;55.918;37.746;2023-05-21T12:34:48;100009.87;;;28.84;0.00
23318;BME280;11831;55.918;37.746;2023-05-21T12:37:24;100009.59;;;27.16;0.00
23318;BME280;11831;55.918;37.746;2023-05-21T12:39:53;100006.78;;;27.50;0.00
23318;BME280;11831;55.918;37.746;2023-05-21T12:42:32;100009.03;;;27.66;0.00
23318;BME280;11831;55.918;37.746;2023-05-21T12:45:06;99999.09;;;27.18;0.00
23318;BME280;11831;55.918;37.746;2023-05-21T12:47:33;100014.06;;;26.03;0.00
23318;BME280;11831;55.918;37.746;2023-05-21T12:50:00;100010.81;;;26.41;0.00
23318;BME280;11831;55.918;37.746;2023-05-21T12:52:28;100005.56;;;26.22;0.00
23318;BME280;11831;55.918;37.746;2023-05-21T12:54:56;100013.91;;;26.82;0.00
23318;BME280;11831;55.918;37.746;2023-05-21T12:57:34;100011.59;;;27.71;0.00
23318;BME280;11831;55.918;37.746;2023-05-21T13:00:01;100013.84;;;28.24;0.00
23318;BME280;11831;55.918;37.746;2023-05-21T13:02:32;100007.44;;;27.47;0.00
23318;BME280;11831;55.918;37.746;2023-05-21T13:05:01;100015.69;;;27.21;0.00
23318;BME280;11831;55.918;37.746;2023-05-21T13:07:31;100006.81;;;26.81;0.00
23318;BME280;11831;55.918;37.746;2023-05-21T13:09:59;100008.22;;;26.36;0.00
23318;BME280;11831;55.918;37.746;2023-05-21T13:12:28;100004.88;;;25.68;0.00
23318;BME280;11831;55.918;37.746;2023-05-21T13:14:56;100012.59;;;26.45;0.00
23318;BME280;11831;55.918;37.746;2023-05-21T13:17:24;100004.28;;;26.28;0.00
23318;BME280;11831;55.918;37.746;2023-05-21T13:22:31;100003.53;;;27.66;0.00
23318;BME280;11831;55.918;37.746;2023-05-21T13:24:58;100009.59;;;27.16;0.00
23318;BME280;11831;55.918;37.746;2023-05-21T13:27:24;100004.38;;;27.40;0.00
23318;BME280;11831;55.918;37.746;2023-05-21T13:29:51;100001.91;;;28.41;0.00
23318;BME280;11831;55.918;37.746;2023-05-21T13:32:17;100006.53;;;28.99;0.00
23318;BME280;11831;55.918;37.746;2023-05-21T13:34:44;100000.75;;;30.16;0.00